This is the latest recevied weather packets stored in our database for station/object W8BS. If no packets are shown the sender has not sent any weather packets the latest 1 day(s).
| Time | Temp. | Humidity | Pressure | Rain* | Wind** | Luminosity | Snow |
|---|---|---|---|---|---|---|---|
| 1778007097 | 22.78° C | 44% | 1010.8 hPa | 0 mm | 1.34 m/s, 214° | 495 W/m² | - |
| 1778006794 | 22.78° C | 43% | 1011 hPa | 0 mm | 1.34 m/s, 199° | 459 W/m² | - |
| 1778006491 | 23.33° C | 43% | 1010.9 hPa | 0 mm | 1.79 m/s, 218° | 456 W/m² | - |
| 1778006188 | 23.33° C | 44% | 1010.9 hPa | 0 mm | 0.89 m/s, 186° | 510 W/m² | - |
| 1778005886 | 22.78° C | 43% | 1011 hPa | 0 mm | 1.34 m/s, 144° | 505 W/m² | - |
| 1778005581 | 23.33° C | 44% | 1011.3 hPa | 0 mm | 1.34 m/s, 190° | 482 W/m² | - |
| 1778005278 | 23.33° C | 44% | 1011 hPa | 0 mm | 1.34 m/s, 200° | 483 W/m² | - |
| 1778004975 | 22.78° C | 43% | 1011 hPa | 0 mm | 1.34 m/s, 214° | 517 W/m² | - |
| 1778004672 | 22.78° C | 44% | 1010.9 hPa | 0 mm | 1.34 m/s, 176° | 552 W/m² | - |
| 1778004368 | 23.33° C | 44% | 1011 hPa | 0 mm | 0.45 m/s, 179° | 553 W/m² | - |
| 1778004066 | 23.33° C | 44% | 1011.2 hPa | 0 mm | 0.89 m/s, 198° | 553 W/m² | - |
| 1778003762 | 22.78° C | 45% | 1011.2 hPa | 0 mm | 2.24 m/s, 236° | 600 W/m² | - |
| 1778003458 | 22.78° C | 45% | 1011.4 hPa | 0 mm | 1.79 m/s, 211° | 641 W/m² | - |
| 1778003155 | 22.22° C | 48% | 1011.3 hPa | 0 mm | 2.24 m/s, 182° | 642 W/m² | - |
| 1778002851 | 23.89° C | 44% | 1011.3 hPa | 0 mm | 3.13 m/s, 245° | 573 W/m² | - |
| 1778002548 | 23.33° C | 46% | 1011.2 hPa | 0 mm | 0.89 m/s, 169° | 668 W/m² | - |
| 1778002245 | 22.78° C | 46% | 1011.6 hPa | 0 mm | 0.89 m/s, 190° | 697 W/m² | - |
| 1778001942 | 22.78° C | 45% | 1011.6 hPa | 0 mm | 3.13 m/s, 238° | 745 W/m² | - |
| 1778001639 | 22.78° C | 47% | 1011.3 hPa | 0 mm | 1.34 m/s, 220° | 758 W/m² | - |
| 1778001334 | 22.22° C | 49% | 1011.6 hPa | 0 mm | 3.58 m/s, 200° | 426 W/m² | - |
| 1778001031 | 22.78° C | 47% | 1011.4 hPa | 0 mm | 1.79 m/s, 186° | 273 W/m² | - |
| 1778000728 | 22.78° C | 48% | 1011.7 hPa | 0 mm | 0.89 m/s, 183° | 728 W/m² | - |
| 1778000424 | 22.22° C | 48% | 1011.6 hPa | 0 mm | 0.89 m/s, 187° | 255 W/m² | - |
| 1778000119 | 22.22° C | 48% | 1011.9 hPa | 0 mm | 2.24 m/s, 227° | 736 W/m² | - |
| 1777999815 | 22.78° C | 47% | 1011.9 hPa | 0 mm | 1.34 m/s, 182° | 275 W/m² | - |
* Rain latest hour (hover to see other rain measurements)
** Current wind speed in m/s (hover to see current wind gust speed)